SMJPTNCC

Guest
Details From SMJP - Paramaribo Johan A Pengel Intl
To TNCC - Curacao Hato
Flight Number -
Tags Generated
Created
Modified
Stats Distance 912 nm / 1,688 km
Max Altitude 0 ft / 0 m
Waypoints 5
Social Downloads 5
Likes 0
Share VATSIM

Download

Looking for another format? Having issues loading an existing format? Contact us
Advertisement - Login to hide

Notes

Generated

Route

SMJP KALUP DAGOX R2370 TNCC

ID Type Via Altitude Latitude Longitude Leg Dist Tot Dist Heading (true) Name
O SMJP APT - 0 ft / 0 m 5.45274˚ -55.20349˚ - 0 nm - -
KALUP FIX - 0 ft / 0 m 6.98644˚ -58.34822˚ 209 nm 209 nm 296° / 296° -
DAGOX FIX - 0 ft / 0 m 10.65808˚ -65.57533˚ 482 nm 691 nm 298° / 297° -
R2370 FIX - 0 ft / 0 m 12.19052˚ -68.96769˚ 219 nm 911 nm 295° / 294° -
O TNCC APT - 0 ft / 0 m 12.19211˚ -68.97514˚ 0 nm 911 nm 282° / 282° -

Altitude Profile

Advertisement - Login to hide

Weather


0- 5 10 15 20 25 30 35+ Temperature / ° C

Clouds and Precipitation
Forecast for 2018-05-27 12:00 UTC. Updated an hour ago

Ground ~20,000 ft ~40,000 ft Winds

SMJP

Details ICAO SMJP (PBM)
Name Paramaribo Johan A Pengel Intl
Region Suriname
Timezone America/Paramaribo (UTC-3.0)
Stats Elevation 59 ft / 18 m (AMSL)
Location 5.452831° -55.187783°
Runways 1
Magnetic Variation 17.565° W

METAR

SMJP 271000Z 16002KT 9999 FEW005 24/23 Q1012 NOSIG

Decode

TAF

TAF SMJP 262200Z 2700/2724 VRB02KT 9999 FEW010 SCT030 TX29/2718Z TN23/2710Z PROB30 TEMPO 2708/2610 5000 SHRA BKN018 BECMG 2711/2713 06008KT SCT020 TEMPO 2714/2718 4000 SHRA FEW015TCU BKN018 FM271800 07008KT 9999 FEW018TCU SCT020 TEMPO 2719/2721 5000 SHRA FEW018CB

Decode

Departure Runways

ID Width Length Bearing (true) Bearing (mag) Surface Threshold Offset Overrun Length
11 148 ft / 45 m 11,415 ft / 3,479 m 89.66° 107.22° Concrete 0 ft / 0 m 164 ft / 50 m
29 148 ft / 45 m 11,415 ft / 3,479 m 269.67° 287.23° Concrete 0 ft / 0 m 197 ft / 60 m

TNCC

Details ICAO TNCC (CUR)
Name Curacao Hato
Region Caribbean Netherlands, Aruba, Curaçao, Sint Maarten
Timezone Unknown (UTC+0.0)
Stats Elevation 29 ft / 9 m (AMSL)
Location 12.188853° -68.959803°
Runways 1
Magnetic Variation 11.373° W

METAR

TNCC 271000Z AUTO 12012KT //// BKN035 27/23 Q1012 NOSIG

Decode

TAF

Not found

Destination Runways

ID Width Length Bearing (true) Bearing (mag) Surface Threshold Offset Overrun Length
11 197 ft / 60 m 11,197 ft / 3,413 m 102.24° 113.61° Asphalt 300 ft / 91 m 0 ft / 0 m
29 197 ft / 60 m 11,197 ft / 3,413 m 282.24° 293.61° Asphalt 300 ft / 91 m 200 ft / 61 m

Approach Navaids

Runway Type Ident Frequency Range Bearing (true) Bearing (mag) Slope Elevation
11 Localiser IATO 111.90 MHz 18 nm / 33 km 102.23° 113.60° - 29 ft / 9 m (AMSL)
11 Glidescope IATO 111.90 MHz 10 nm / 19 km 102.24° 113.61° 3.00° 29 ft / 9 m (AMSL)
11 DME IATO 111.90 MHz 18 nm / 33 km - - - 29 ft / 9 m (AMSL)

Popular Alternatives